sensor_id;sensor_type;location;lat;lon;timestamp;pressure;altitude;pressure_sealevel;temperature;humidity
55590;BME280;41452;42.780;23.116;2023-05-15T00:01:42;94381.88;;;9.59;100.00
55590;BME280;41452;42.780;23.116;2023-05-15T00:04:07;94379.50;;;9.58;100.00
55590;BME280;41452;42.780;23.116;2023-05-15T00:06:33;94382.16;;;9.39;100.00
55590;BME280;41452;42.780;23.116;2023-05-15T00:08:58;94407.72;;;9.74;100.00
55590;BME280;41452;42.780;23.116;2023-05-15T00:11:24;94394.06;;;9.84;100.00
55590;BME280;41452;42.780;23.116;2023-05-15T00:13:52;94396.00;;;9.88;100.00
55590;BME280;41452;42.780;23.116;2023-05-15T00:16:17;94384.47;;;9.78;100.00
55590;BME280;41452;42.780;23.116;2023-05-15T00:18:43;94364.72;;;9.63;100.00
55590;BME280;41452;42.780;23.116;2023-05-15T00:21:08;94373.94;;;9.66;100.00
55590;BME280;41452;42.780;23.116;2023-05-15T00:23:34;94365.22;;;9.54;100.00
55590;BME280;41452;42.780;23.116;2023-05-15T00:25:59;94379.38;;;9.52;100.00
55590;BME280;41452;42.780;23.116;2023-05-15T00:28:25;94368.75;;;9.47;100.00
55590;BME280;41452;42.780;23.116;2023-05-15T00:30:50;94349.25;;;9.43;100.00
55590;BME280;41452;42.780;23.116;2023-05-15T00:33:16;94387.97;;;9.41;100.00
55590;BME280;41452;42.780;23.116;2023-05-15T00:35:41;94376.47;;;9.42;100.00
55590;BME280;41452;42.780;23.116;2023-05-15T00:38:07;94339.59;;;9.25;100.00
55590;BME280;41452;42.780;23.116;2023-05-15T00:40:33;94374.13;;;9.52;100.00
55590;BME280;41452;42.780;23.116;2023-05-15T00:43:00;94369.91;;;9.51;100.00
55590;BME280;41452;42.780;23.116;2023-05-15T00:45:27;94361.03;;;9.52;100.00
55590;BME280;41452;42.780;23.116;2023-05-15T00:47:53;94337.22;;;9.54;100.00
55590;BME280;41452;42.780;23.116;2023-05-15T00:50:19;94345.03;;;9.42;100.00
55590;BME280;41452;42.780;23.116;2023-05-15T00:52:46;94348.22;;;9.44;100.00
55590;BME280;41452;42.780;23.116;2023-05-15T00:55:11;94351.06;;;9.43;100.00
55590;BME280;41452;42.780;23.116;2023-05-15T00:57:37;94364.84;;;9.38;100.00
55590;BME280;41452;42.780;23.116;2023-05-15T01:00:04;94364.50;;;9.35;100.00
55590;BME280;41452;42.780;23.116;2023-05-15T01:02:37;94380.09;;;9.41;100.00
55590;BME280;41452;42.780;23.116;2023-05-15T01:05:03;94353.38;;;9.21;100.00
55590;BME280;41452;42.780;23.116;2023-05-15T01:07:31;94373.72;;;9.37;100.00
55590;BME280;41452;42.780;23.116;2023-05-15T01:09:58;94374.66;;;9.43;100.00
55590;BME280;41452;42.780;23.116;2023-05-15T01:12:25;94323.97;;;9.19;100.00
55590;BME280;41452;42.780;23.116;2023-05-15T01:14:51;94344.03;;;9.25;100.00
55590;BME280;41452;42.780;23.116;2023-05-15T01:17:17;94328.09;;;9.26;100.00
55590;BME280;41452;42.780;23.116;2023-05-15T01:19:43;94330.81;;;9.20;100.00
55590;BME280;41452;42.780;23.116;2023-05-15T01:30:21;94333.84;;;9.17;100.00
55590;BME280;41452;42.780;23.116;2023-05-15T01:38:56;94317.25;;;9.23;100.00
55590;BME280;41452;42.780;23.116;2023-05-15T01:41:31;94335.75;;;9.28;100.00
55590;BME280;41452;42.780;23.116;2023-05-15T01:44:18;94331.16;;;9.23;100.00
55590;BME280;41452;42.780;23.116;2023-05-15T01:46:48;94337.94;;;9.31;100.00
55590;BME280;41452;42.780;23.116;2023-05-15T01:49:17;94330.63;;;9.33;100.00
55590;BME280;41452;42.780;23.116;2023-05-15T01:51:45;94318.09;;;9.35;100.00
55590;BME280;41452;42.780;23.116;2023-05-15T01:54:13;94327.59;;;9.48;100.00
55590;BME280;41452;42.780;23.116;2023-05-15T01:56:39;94301.59;;;9.35;100.00
55590;BME280;41452;42.780;23.116;2023-05-15T01:59:06;94342.34;;;9.61;100.00
55590;BME280;41452;42.780;23.116;2023-05-15T02:01:33;94339.84;;;9.66;100.00
55590;BME280;41452;42.780;23.116;2023-05-15T02:04:00;94325.47;;;9.57;100.00
55590;BME280;41452;42.780;23.116;2023-05-15T02:06:28;94330.28;;;9.71;100.00
55590;BME280;41452;42.780;23.116;2023-05-15T02:08:56;94303.00;;;9.61;100.00
55590;BME280;41452;42.780;23.116;2023-05-15T02:11:22;94327.66;;;9.71;100.00
55590;BME280;41452;42.780;23.116;2023-05-15T02:13:47;94286.72;;;9.59;100.00
55590;BME280;41452;42.780;23.116;2023-05-15T02:16:13;94281.13;;;9.55;100.00
55590;BME280;41452;42.780;23.116;2023-05-15T02:18:39;94311.72;;;9.85;100.00
55590;BME280;41452;42.780;23.116;2023-05-15T02:21:05;94266.88;;;9.63;100.00
55590;BME280;41452;42.780;23.116;2023-05-15T02:23:30;94308.88;;;9.86;100.00
55590;BME280;41452;42.780;23.116;2023-05-15T02:37:13;94298.94;;;9.65;100.00
55590;BME280;41452;42.780;23.116;2023-05-15T02:39:42;94289.00;;;9.67;100.00
55590;BME280;41452;42.780;23.116;2023-05-15T02:42:11;94312.03;;;9.77;100.00
55590;BME280;41452;42.780;23.116;2023-05-15T02:44:39;94249.06;;;9.41;100.00
55590;BME280;41452;42.780;23.116;2023-05-15T02:47:05;94297.91;;;9.78;100.00
55590;BME280;41452;42.780;23.116;2023-05-15T02:49:30;94292.34;;;9.74;100.00
55590;BME280;41452;42.780;23.116;2023-05-15T02:51:56;94295.06;;;9.79;100.00
55590;BME280;41452;42.780;23.116;2023-05-15T02:54:21;94258.66;;;9.59;100.00
55590;BME280;41452;42.780;23.116;2023-05-15T02:56:47;94290.84;;;9.78;100.00
55590;BME280;41452;42.780;23.116;2023-05-15T02:59:12;94293.03;;;9.81;100.00
55590;BME280;41452;42.780;23.116;2023-05-15T03:01:43;94270.19;;;9.58;100.00
55590;BME280;41452;42.780;23.116;2023-05-15T03:04:08;94296.66;;;9.80;100.00
55590;BME280;41452;42.780;23.116;2023-05-15T03:06:33;94276.47;;;9.69;100.00
55590;BME280;41452;42.780;23.116;2023-05-15T03:08:59;94288.44;;;9.77;100.00
55590;BME280;41452;42.780;23.116;2023-05-15T03:11:24;94293.03;;;9.81;100.00
55590;BME280;41452;42.780;23.116;2023-05-15T03:13:49;94286.16;;;9.68;100.00
55590;BME280;41452;42.780;23.116;2023-05-15T03:16:15;94301.56;;;9.77;100.00
55590;BME280;41452;42.780;23.116;2023-05-15T03:18:40;94300.66;;;9.83;100.00
55590;BME280;41452;42.780;23.116;2023-05-15T03:21:06;94285.50;;;9.85;100.00
55590;BME280;41452;42.780;23.116;2023-05-15T03:23:31;94257.78;;;9.65;100.00
55590;BME280;41452;42.780;23.116;2023-05-15T03:25:57;94258.13;;;9.69;100.00
55590;BME280;41452;42.780;23.116;2023-05-15T03:28:22;94239.06;;;9.62;100.00
55590;BME280;41452;42.780;23.116;2023-05-15T03:30:48;94250.44;;;9.56;100.00
55590;BME280;41452;42.780;23.116;2023-05-15T03:33:13;94256.34;;;9.39;100.00
55590;BME280;41452;42.780;23.116;2023-05-15T03:35:38;94291.19;;;9.70;100.00
55590;BME280;41452;42.780;23.116;2023-05-15T03:38:04;94253.19;;;9.49;100.00
55590;BME280;41452;42.780;23.116;2023-05-15T03:40:29;94276.03;;;9.72;100.00
55590;BME280;41452;42.780;23.116;2023-05-15T03:42:55;94286.97;;;9.69;100.00
55590;BME280;41452;42.780;23.116;2023-05-15T03:45:20;94298.16;;;9.76;100.00
55590;BME280;41452;42.780;23.116;2023-05-15T03:47:46;94303.63;;;9.86;100.00
55590;BME280;41452;42.780;23.116;2023-05-15T03:50:12;94299.31;;;9.92;100.00
55590;BME280;41452;42.780;23.116;2023-05-15T03:52:38;94299.09;;;9.94;100.00
55590;BME280;41452;42.780;23.116;2023-05-15T03:55:03;94301.81;;;9.87;100.00
55590;BME280;41452;42.780;23.116;2023-05-15T03:57:29;94294.06;;;9.92;100.00
55590;BME280;41452;42.780;23.116;2023-05-15T03:59:56;94261.63;;;9.63;100.00
55590;BME280;41452;42.780;23.116;2023-05-15T04:02:21;94294.03;;;9.80;100.00
55590;BME280;41452;42.780;23.116;2023-05-15T04:04:46;94302.25;;;9.72;100.00
55590;BME280;41452;42.780;23.116;2023-05-15T04:07:12;94284.53;;;9.56;100.00
55590;BME280;41452;42.780;23.116;2023-05-15T04:09:38;94271.75;;;9.47;100.00
55590;BME280;41452;42.780;23.116;2023-05-15T04:12:03;94269.59;;;9.44;100.00
55590;BME280;41452;42.780;23.116;2023-05-15T04:14:29;94278.72;;;9.54;100.00
55590;BME280;41452;42.780;23.116;2023-05-15T04:16:54;94274.25;;;9.42;100.00
55590;BME280;41452;42.780;23.116;2023-05-15T04:19:20;94269.69;;;9.38;100.00
55590;BME280;41452;42.780;23.116;2023-05-15T04:21:45;94286.22;;;9.50;100.00
55590;BME280;41452;42.780;23.116;2023-05-15T04:24:11;94264.31;;;9.32;100.00
55590;BME280;41452;42.780;23.116;2023-05-15T04:26:36;94272.16;;;9.32;100.00
55590;BME280;41452;42.780;23.116;2023-05-15T04:29:02;94273.34;;;9.37;100.00
55590;BME280;41452;42.780;23.116;2023-05-15T04:31:27;94282.47;;;9.46;100.00
55590;BME280;41452;42.780;23.116;2023-05-15T04:33:52;94237.81;;;9.10;100.00
55590;BME280;41452;42.780;23.116;2023-05-15T04:36:18;94262.63;;;9.38;100.00
55590;BME280;41452;42.780;23.116;2023-05-15T04:38:43;94278.78;;;9.35;100.00
55590;BME280;41452;42.780;23.116;2023-05-15T04:41:09;94280.28;;;9.31;100.00
55590;BME280;41452;42.780;23.116;2023-05-15T04:43:34;94283.34;;;9.40;100.00
55590;BME280;41452;42.780;23.116;2023-05-15T04:46:00;94270.81;;;9.30;100.00
55590;BME280;41452;42.780;23.116;2023-05-15T04:48:25;94267.03;;;9.26;100.00
55590;BME280;41452;42.780;23.116;2023-05-15T04:50:50;94276.75;;;9.37;100.00
55590;BME280;41452;42.780;23.116;2023-05-15T04:53:16;94239.66;;;9.22;100.00
55590;BME280;41452;42.780;23.116;2023-05-15T04:55:41;94289.41;;;9.40;100.00
55590;BME280;41452;42.780;23.116;2023-05-15T04:58:07;94271.38;;;9.32;100.00
55590;BME280;41452;42.780;23.116;2023-05-15T05:00:32;94250.97;;;9.22;100.00
55590;BME280;41452;42.780;23.116;2023-05-15T05:02:58;94236.56;;;9.13;100.00
55590;BME280;41452;42.780;23.116;2023-05-15T05:05:23;94256.88;;;9.18;100.00
55590;BME280;41452;42.780;23.116;2023-05-15T05:07:48;94286.03;;;9.21;100.00
55590;BME280;41452;42.780;23.116;2023-05-15T05:10:16;94300.63;;;9.29;100.00
55590;BME280;41452;42.780;23.116;2023-05-15T05:12:41;94290.50;;;9.32;100.00
55590;BME280;41452;42.780;23.116;2023-05-15T05:15:07;94280.38;;;9.36;100.00
55590;BME280;41452;42.780;23.116;2023-05-15T05:17:33;94287.34;;;9.42;100.00
55590;BME280;41452;42.780;23.116;2023-05-15T05:19:58;94280.44;;;9.18;100.00
55590;BME280;41452;42.780;23.116;2023-05-15T05:22:24;94275.13;;;9.24;100.00
55590;BME280;41452;42.780;23.116;2023-05-15T05:24:49;94249.91;;;9.11;100.00
55590;BME280;41452;42.780;23.116;2023-05-15T05:27:14;94264.09;;;9.34;100.00
55590;BME280;41452;42.780;23.116;2023-05-15T05:29:40;94276.63;;;9.32;100.00
55590;BME280;41452;42.780;23.116;2023-05-15T05:32:05;94258.34;;;9.25;100.00
55590;BME280;41452;42.780;23.116;2023-05-15T05:34:31;94267.19;;;9.43;100.00
55590;BME280;41452;42.780;23.116;2023-05-15T05:36:57;94270.38;;;9.45;100.00
55590;BME280;41452;42.780;23.116;2023-05-15T05:39:22;94263.56;;;9.44;100.00
55590;BME280;41452;42.780;23.116;2023-05-15T05:41:48;94249.69;;;9.25;100.00
55590;BME280;41452;42.780;23.116;2023-05-15T05:44:13;94250.63;;;9.19;100.00
55590;BME280;41452;42.780;23.116;2023-05-15T05:46:38;94284.25;;;9.33;100.00
55590;BME280;41452;42.780;23.116;2023-05-15T05:49:04;94252.63;;;9.17;100.00
55590;BME280;41452;42.780;23.116;2023-05-15T05:51:30;94250.75;;;9.24;100.00
55590;BME280;41452;42.780;23.116;2023-05-15T05:53:55;94285.53;;;9.43;100.00
55590;BME280;41452;42.780;23.116;2023-05-15T05:56:21;94266.03;;;9.39;100.00
55590;BME280;41452;42.780;23.116;2023-05-15T05:58:46;94281.34;;;9.54;100.00
55590;BME280;41452;42.780;23.116;2023-05-15T06:01:12;94246.56;;;9.46;100.00
55590;BME280;41452;42.780;23.116;2023-05-15T06:03:38;94244.75;;;9.47;100.00
55590;BME280;41452;42.780;23.116;2023-05-15T06:06:03;94235.41;;;9.51;100.00
55590;BME280;41452;42.780;23.116;2023-05-15T06:08:29;94246.28;;;9.66;100.00
55590;BME280;41452;42.780;23.116;2023-05-15T06:10:54;94253.34;;;9.78;100.00
55590;BME280;41452;42.780;23.116;2023-05-15T06:13:20;94249.59;;;9.74;100.00
55590;BME280;41452;42.780;23.116;2023-05-15T06:15:45;94260.19;;;9.90;100.00
55590;BME280;41452;42.780;23.116;2023-05-15T06:18:11;94264.75;;;10.07;100.00
55590;BME280;41452;42.780;23.116;2023-05-15T06:20:37;94270.09;;;10.12;100.00
55590;BME280;41452;42.780;23.116;2023-05-15T06:23:02;94270.22;;;10.17;100.00
55590;BME280;41452;42.780;23.116;2023-05-15T06:25:28;94278.09;;;10.17;100.00
55590;BME280;41452;42.780;23.116;2023-05-15T06:27:53;94266.25;;;10.15;100.00
55590;BME280;41452;42.780;23.116;2023-05-15T06:30:19;94277.88;;;10.31;100.00
55590;BME280;41452;42.780;23.116;2023-05-15T06:32:45;94279.47;;;10.32;100.00
55590;BME280;41452;42.780;23.116;2023-05-15T06:35:10;94274.78;;;10.34;100.00
55590;BME280;41452;42.780;23.116;2023-05-15T06:37:36;94276.63;;;10.45;100.00
55590;BME280;41452;42.780;23.116;2023-05-15T06:40:03;94285.50;;;10.56;100.00
55590;BME280;41452;42.780;23.116;2023-05-15T06:42:28;94281.03;;;10.56;100.00
55590;BME280;41452;42.780;23.116;2023-05-15T06:44:53;94278.66;;;10.55;100.00
55590;BME280;41452;42.780;23.116;2023-05-15T06:47:19;94276.56;;;10.69;100.00
55590;BME280;41452;42.780;23.116;2023-05-15T06:49:44;94267.41;;;10.71;100.00
55590;BME280;41452;42.780;23.116;2023-05-15T06:52:10;94231.50;;;10.48;100.00
55590;BME280;41452;42.780;23.116;2023-05-15T06:54:35;94238.56;;;10.59;100.00
55590;BME280;41452;42.780;23.116;2023-05-15T06:57:00;94263.88;;;10.77;100.00
55590;BME280;41452;42.780;23.116;2023-05-15T06:59:26;94250.75;;;10.65;100.00
55590;BME280;41452;42.780;23.116;2023-05-15T07:01:51;94250.41;;;10.74;100.00
55590;BME280;41452;42.780;23.116;2023-05-15T07:04:18;94235.84;;;10.54;100.00
55590;BME280;41452;42.780;23.116;2023-05-15T07:06:43;94275.41;;;10.76;100.00
55590;BME280;41452;42.780;23.116;2023-05-15T07:09:09;94285.78;;;10.83;100.00
55590;BME280;41452;42.780;23.116;2023-05-15T07:11:34;94288.88;;;10.80;100.00
55590;BME280;41452;42.780;23.116;2023-05-15T07:14:02;94286.91;;;10.87;100.00
55590;BME280;41452;42.780;23.116;2023-05-15T07:16:28;94268.91;;;10.79;100.00
55590;BME280;41452;42.780;23.116;2023-05-15T07:18:53;94284.94;;;10.94;100.00
55590;BME280;41452;42.780;23.116;2023-05-15T07:21:19;94251.31;;;10.68;100.00
55590;BME280;41452;42.780;23.116;2023-05-15T07:23:44;94265.44;;;10.90;100.00
55590;BME280;41452;42.780;23.116;2023-05-15T07:26:09;94263.13;;;10.94;100.00
55590;BME280;41452;42.780;23.116;2023-05-15T07:28:35;94261.22;;;10.89;100.00
55590;BME280;41452;42.780;23.116;2023-05-15T07:31:00;94245.53;;;10.94;100.00
55590;BME280;41452;42.780;23.116;2023-05-15T07:33:26;94240.28;;;10.94;100.00
55590;BME280;41452;42.780;23.116;2023-05-15T07:35:51;94262.34;;;11.22;100.00
55590;BME280;41452;42.780;23.116;2023-05-15T07:38:16;94265.34;;;11.14;100.00
55590;BME280;41452;42.780;23.116;2023-05-15T07:40:42;94233.53;;;10.98;100.00
55590;BME280;41452;42.780;23.116;2023-05-15T07:43:07;94274.56;;;11.28;100.00
55590;BME280;41452;42.780;23.116;2023-05-15T07:45:33;94283.56;;;11.32;100.00
55590;BME280;41452;42.780;23.116;2023-05-15T07:48:12;94258.31;;;11.02;100.00
55590;BME280;41452;42.780;23.116;2023-05-15T07:50:38;94288.72;;;11.27;100.00
55590;BME280;41452;42.780;23.116;2023-05-15T07:53:03;94280.97;;;11.20;100.00
55590;BME280;41452;42.780;23.116;2023-05-15T07:55:28;94279.22;;;11.26;100.00
55590;BME280;41452;42.780;23.116;2023-05-15T07:57:54;94280.38;;;11.30;100.00
55590;BME280;41452;42.780;23.116;2023-05-15T08:00:20;94276.69;;;11.31;100.00
55590;BME280;41452;42.780;23.116;2023-05-15T08:02:46;94291.06;;;11.40;100.00
55590;BME280;41452;42.780;23.116;2023-05-15T08:05:12;94301.84;;;11.56;100.00
55590;BME280;41452;42.780;23.116;2023-05-15T08:07:38;94257.91;;;11.39;100.00
55590;BME280;41452;42.780;23.116;2023-05-15T08:10:03;94300.81;;;11.57;100.00
55590;BME280;41452;42.780;23.116;2023-05-15T08:12:30;94303.34;;;11.69;100.00
55590;BME280;41452;42.780;23.116;2023-05-15T08:14:55;94308.16;;;11.72;100.00
55590;BME280;41452;42.780;23.116;2023-05-15T08:17:22;94276.66;;;11.60;100.00
55590;BME280;41452;42.780;23.116;2023-05-15T08:19:48;94280.50;;;11.69;100.00
55590;BME280;41452;42.780;23.116;2023-05-15T08:22:13;94304.81;;;11.76;100.00
55590;BME280;41452;42.780;23.116;2023-05-15T08:24:39;94301.13;;;11.77;100.00
55590;BME280;41452;42.780;23.116;2023-05-15T08:27:06;94286.63;;;11.75;100.00
55590;BME280;41452;42.780;23.116;2023-05-15T08:29:33;94259.06;;;11.60;100.00
55590;BME280;41452;42.780;23.116;2023-05-15T08:31:59;94257.78;;;11.46;100.00
55590;BME280;41452;42.780;23.116;2023-05-15T08:34:25;94270.19;;;11.51;100.00
55590;BME280;41452;42.780;23.116;2023-05-15T08:36:51;94281.34;;;11.58;100.00
55590;BME280;41452;42.780;23.116;2023-05-15T08:39:16;94267.47;;;11.46;100.00
55590;BME280;41452;42.780;23.116;2023-05-15T08:41:59;94289.25;;;11.58;100.00
55590;BME280;41452;42.780;23.116;2023-05-15T08:44:27;94284.81;;;11.58;100.00
55590;BME280;41452;42.780;23.116;2023-05-15T08:46:53;94254.81;;;11.43;100.00
55590;BME280;41452;42.780;23.116;2023-05-15T08:49:32;94281.66;;;11.61;100.00
55590;BME280;41452;42.780;23.116;2023-05-15T08:52:00;94280.25;;;11.54;100.00
55590;BME280;41452;42.780;23.116;2023-05-15T08:54:25;94270.19;;;11.51;100.00
55590;BME280;41452;42.780;23.116;2023-05-15T08:56:52;94257.91;;;11.39;100.00
55590;BME280;41452;42.780;23.116;2023-05-15T08:59:17;94274.09;;;11.48;100.00
55590;BME280;41452;42.780;23.116;2023-05-15T09:01:43;94242.59;;;11.36;100.00
55590;BME280;41452;42.780;23.116;2023-05-15T09:04:08;94245.31;;;11.41;100.00
55590;BME280;41452;42.780;23.116;2023-05-15T09:06:34;94256.72;;;11.47;100.00
55590;BME280;41452;42.780;23.116;2023-05-15T09:09:00;94256.94;;;11.46;100.00
55590;BME280;41452;42.780;23.116;2023-05-15T09:11:28;94263.91;;;11.52;100.00
55590;BME280;41452;42.780;23.116;2023-05-15T09:13:58;94258.31;;;11.48;100.00
55590;BME280;41452;42.780;23.116;2023-05-15T09:16:24;94245.31;;;11.41;100.00
55590;BME280;41452;42.780;23.116;2023-05-15T09:18:51;94216.22;;;11.31;100.00
55590;BME280;41452;42.780;23.116;2023-05-15T09:21:28;94220.78;;;11.53;100.00
55590;BME280;41452;42.780;23.116;2023-05-15T09:23:55;94202.00;;;11.44;100.00
55590;BME280;41452;42.780;23.116;2023-05-15T09:26:39;94249.66;;;11.82;100.00
55590;BME280;41452;42.780;23.116;2023-05-15T09:29:04;94237.13;;;11.89;100.00
55590;BME280;41452;42.780;23.116;2023-05-15T09:31:30;94214.81;;;11.74;100.00
55590;BME280;41452;42.780;23.116;2023-05-15T09:34:00;94239.75;;;11.89;100.00
55590;BME280;41452;42.780;23.116;2023-05-15T09:36:26;94232.53;;;11.96;100.00
55590;BME280;41452;42.780;23.116;2023-05-15T09:38:57;94227.50;;;11.94;100.00
55590;BME280;41452;42.780;23.116;2023-05-15T09:41:24;94235.78;;;12.03;100.00
55590;BME280;41452;42.780;23.116;2023-05-15T09:43:51;94227.41;;;12.06;100.00
55590;BME280;41452;42.780;23.116;2023-05-15T09:46:16;94230.72;;;11.85;100.00
55590;BME280;41452;42.780;23.116;2023-05-15T09:48:42;94217.44;;;11.91;100.00
55590;BME280;41452;42.780;23.116;2023-05-15T09:51:18;94218.63;;;12.01;100.00
55590;BME280;41452;42.780;23.116;2023-05-15T09:53:51;94225.34;;;12.08;100.00
55590;BME280;41452;42.780;23.116;2023-05-15T09:56:17;94205.47;;;12.01;100.00
55590;BME280;41452;42.780;23.116;2023-05-15T09:58:57;94231.00;;;12.17;100.00
55590;BME280;41452;42.780;23.116;2023-05-15T10:01:23;94232.31;;;12.20;100.00
55590;BME280;41452;42.780;23.116;2023-05-15T10:03:59;94214.72;;;12.03;100.00
55590;BME280;41452;42.780;23.116;2023-05-15T10:06:24;94192.25;;;11.95;100.00
55590;BME280;41452;42.780;23.116;2023-05-15T10:08:53;94215.03;;;12.07;100.00
55590;BME280;41452;42.780;23.116;2023-05-15T10:11:19;94208.56;;;12.14;100.00
55590;BME280;41452;42.780;23.116;2023-05-15T10:13:47;94242.44;;;12.28;100.00
55590;BME280;41452;42.780;23.116;2023-05-15T10:16:13;94220.06;;;12.08;100.00
55590;BME280;41452;42.780;23.116;2023-05-15T10:18:40;94254.00;;;12.27;100.00
55590;BME280;41452;42.780;23.116;2023-05-15T10:21:07;94248.66;;;12.22;100.00
55590;BME280;41452;42.780;23.116;2023-05-15T10:23:35;94193.66;;;11.86;100.00
55590;BME280;41452;42.780;23.116;2023-05-15T10:26:05;94255.63;;;12.28;100.00
55590;BME280;41452;42.780;23.116;2023-05-15T10:28:34;94254.41;;;12.35;100.00
55590;BME280;41452;42.780;23.116;2023-05-15T10:31:00;94259.97;;;12.39;100.00
55590;BME280;41452;42.780;23.116;2023-05-15T10:33:27;94251.59;;;12.42;100.00
55590;BME280;41452;42.780;23.116;2023-05-15T10:35:54;94245.25;;;12.43;100.00
55590;BME280;41452;42.780;23.116;2023-05-15T10:38:20;94253.31;;;12.53;100.00
55590;BME280;41452;42.780;23.116;2023-05-15T10:40:47;94246.47;;;12.52;100.00
55590;BME280;41452;42.780;23.116;2023-05-15T10:43:13;94247.97;;;12.48;100.00
55590;BME280;41452;42.780;23.116;2023-05-15T10:45:39;94250.06;;;12.46;100.00
55590;BME280;41452;42.780;23.116;2023-05-15T10:48:05;94242.47;;;12.50;100.00
55590;BME280;41452;42.780;23.116;2023-05-15T10:50:32;94236.41;;;12.49;100.00
55590;BME280;41452;42.780;23.116;2023-05-15T10:52:58;94238.25;;;12.49;100.00
55590;BME280;41452;42.780;23.116;2023-05-15T10:55:24;94237.97;;;12.50;100.00
55590;BME280;41452;42.780;23.116;2023-05-15T10:57:50;94212.44;;;12.29;100.00
55590;BME280;41452;42.780;23.116;2023-05-15T11:02:48;94235.84;;;12.47;100.00
55590;BME280;41452;42.780;23.116;2023-05-15T11:05:13;94231.22;;;12.54;100.00
55590;BME280;41452;42.780;23.116;2023-05-15T11:07:39;94235.09;;;12.52;100.00
55590;BME280;41452;42.780;23.116;2023-05-15T11:12:57;94176.06;;;12.26;100.00
55590;BME280;41452;42.780;23.116;2023-05-15T11:15:23;94222.44;;;12.71;100.00
55590;BME280;41452;42.780;23.116;2023-05-15T11:18:02;94185.75;;;12.42;100.00
55590;BME280;41452;42.780;23.116;2023-05-15T11:23:07;94239.28;;;12.70;100.00
55590;BME280;41452;42.780;23.116;2023-05-15T11:25:34;94226.34;;;12.68;100.00
55590;BME280;41452;42.780;23.116;2023-05-15T11:28:02;94210.88;;;12.72;100.00
55590;BME280;41452;42.780;23.116;2023-05-15T11:30:36;94209.75;;;12.68;100.00
55590;BME280;41452;42.780;23.116;2023-05-15T11:33:09;94217.28;;;12.81;100.00
55590;BME280;41452;42.780;23.116;2023-05-15T11:35:43;94239.41;;;12.80;100.00
55590;BME280;41452;42.780;23.116;2023-05-15T11:38:17;94217.03;;;12.83;100.00
55590;BME280;41452;42.780;23.116;2023-05-15T11:40:48;94221.19;;;13.01;100.00
55590;BME280;41452;42.780;23.116;2023-05-15T11:43:26;94212.28;;;13.07;100.00
55590;BME280;41452;42.780;23.116;2023-05-15T11:46:06;94183.97;;;12.97;100.00
55590;BME280;41452;42.780;23.116;2023-05-15T11:48:34;94224.00;;;13.21;100.00
55590;BME280;41452;42.780;23.116;2023-05-15T11:51:00;94214.22;;;13.17;100.00
55590;BME280;41452;42.780;23.116;2023-05-15T11:53:28;94205.31;;;13.23;100.00
55590;BME280;41452;42.780;23.116;2023-05-15T11:55:53;94219.75;;;13.15;100.00
55590;BME280;41452;42.780;23.116;2023-05-15T11:58:21;94211.88;;;13.20;100.00
55590;BME280;41452;42.780;23.116;2023-05-15T12:00:48;94209.44;;;13.13;100.00
55590;BME280;41452;42.780;23.116;2023-05-15T12:03:15;94182.91;;;12.98;100.00
55590;BME280;41452;42.780;23.116;2023-05-15T12:05:41;94214.56;;;13.25;100.00
55590;BME280;41452;42.780;23.116;2023-05-15T12:08:11;94171.44;;;13.09;100.00
55590;BME280;41452;42.780;23.116;2023-05-15T12:10:43;94189.91;;;13.37;100.00
55590;BME280;41452;42.780;23.116;2023-05-15T12:13:10;94186.00;;;13.17;100.00
55590;BME280;41452;42.780;23.116;2023-05-15T12:15:37;94194.72;;;13.45;100.00
55590;BME280;41452;42.780;23.116;2023-05-15T12:18:03;94155.66;;;13.42;100.00
55590;BME280;41452;42.780;23.116;2023-05-15T12:20:32;94171.19;;;13.76;100.00
55590;BME280;41452;42.780;23.116;2023-05-15T12:22:57;94166.47;;;13.78;100.00
55590;BME280;41452;42.780;23.116;2023-05-15T12:25:23;94152.97;;;13.74;100.00
55590;BME280;41452;42.780;23.116;2023-05-15T12:27:49;94151.91;;;13.70;100.00
55590;BME280;41452;42.780;23.116;2023-05-15T12:30:15;94107.69;;;13.50;100.00
55590;BME280;41452;42.780;23.116;2023-05-15T12:32:41;94121.44;;;13.52;100.00
55590;BME280;41452;42.780;23.116;2023-05-15T12:35:07;94124.97;;;13.68;100.00
55590;BME280;41452;42.780;23.116;2023-05-15T12:37:34;94126.81;;;13.67;100.00
55590;BME280;41452;42.780;23.116;2023-05-15T12:40:02;94121.81;;;13.71;100.00
55590;BME280;41452;42.780;23.116;2023-05-15T12:42:29;94136.66;;;13.77;100.00
55590;BME280;41452;42.780;23.116;2023-05-15T12:44:55;94128.47;;;13.79;100.00
55590;BME280;41452;42.780;23.116;2023-05-15T12:47:22;94135.59;;;13.83;100.00
55590;BME280;41452;42.780;23.116;2023-05-15T12:49:48;94076.59;;;13.52;100.00
55590;BME280;41452;42.780;23.116;2023-05-15T12:52:14;94091.56;;;13.84;100.00
55590;BME280;41452;42.780;23.116;2023-05-15T12:54:40;94108.50;;;13.98;100.00
55590;BME280;41452;42.780;23.116;2023-05-15T12:57:07;94087.91;;;13.95;100.00
55590;BME280;41452;42.780;23.116;2023-05-15T12:59:33;94114.47;;;14.36;100.00
55590;BME280;41452;42.780;23.116;2023-05-15T13:01:58;94121.97;;;14.60;100.00
55590;BME280;41452;42.780;23.116;2023-05-15T13:04:24;94093.16;;;14.58;100.00
55590;BME280;41452;42.780;23.116;2023-05-15T13:06:49;94111.44;;;14.75;100.00
55590;BME280;41452;42.780;23.116;2023-05-15T13:09:20;94110.63;;;14.64;100.00
55590;BME280;41452;42.780;23.116;2023-05-15T13:11:46;94083.63;;;14.57;100.00
55590;BME280;41452;42.780;23.116;2023-05-15T13:14:12;94089.47;;;14.59;100.00
55590;BME280;41452;42.780;23.116;2023-05-15T13:16:45;94098.72;;;14.72;100.00